createdAt,value
2022-10-11T00:00:18.637Z,11.81
2022-10-11T00:00:50.260Z,11.73
2022-10-11T00:01:21.895Z,11.62
2022-10-11T00:01:53.436Z,11.69
2022-10-11T00:02:26.556Z,11.67
2022-10-11T00:02:58.342Z,11.70
2022-10-11T00:03:29.935Z,11.60
2022-10-11T00:04:01.645Z,11.69
2022-10-11T00:04:33.217Z,11.66
2022-10-11T00:05:05.154Z,11.71
2022-10-11T00:05:36.885Z,11.66
2022-10-11T00:06:09.360Z,11.69
2022-10-11T00:06:43.487Z,11.71
2022-10-11T00:07:15.012Z,11.77
2022-10-11T00:07:46.554Z,11.66
2022-10-11T00:08:18.121Z,11.66
2022-10-11T00:08:49.641Z,11.71
2022-10-11T00:09:21.177Z,11.69
2022-10-11T00:09:52.700Z,11.62
2022-10-11T00:10:24.666Z,11.66
2022-10-11T00:11:00.891Z,11.70
2022-10-11T00:11:32.647Z,11.63
2022-10-11T00:12:04.654Z,11.66
2022-10-11T00:12:37.108Z,11.66
2022-10-11T00:13:09.840Z,11.63
2022-10-11T00:13:41.364Z,11.63
2022-10-11T00:14:12.971Z,11.63
2022-10-11T00:14:44.501Z,11.60
2022-10-11T00:15:18.849Z,11.60
2022-10-11T00:15:50.425Z,11.63
2022-10-11T00:16:21.979Z,11.66
2022-10-11T00:16:54.074Z,11.69
2022-10-11T00:17:25.651Z,11.65
2022-10-11T00:17:57.213Z,11.59
2022-10-11T00:18:28.834Z,11.62
2022-10-11T00:19:00.386Z,11.63
2022-10-11T00:19:32.144Z,11.52
2022-10-11T00:20:04.819Z,11.55
2022-10-11T00:20:36.352Z,11.52
2022-10-11T00:21:10.674Z,11.42
2022-10-11T00:21:42.231Z,11.44
2022-10-11T00:22:13.775Z,11.49
2022-10-11T00:22:45.337Z,11.53
2022-10-11T00:23:17.017Z,11.50
2022-10-11T00:23:49.305Z,11.52
2022-10-11T00:24:20.881Z,11.47
2022-10-11T00:24:52.978Z,11.49
2022-10-11T00:25:24.515Z,11.52
2022-10-11T00:26:00.943Z,11.53
2022-10-11T00:26:32.647Z,11.52
2022-10-11T00:27:04.183Z,11.46
2022-10-11T00:27:36.743Z,11.43
2022-10-11T00:28:08.499Z,11.40
2022-10-11T00:28:41.354Z,11.42
2022-10-11T00:29:13.067Z,11.43
2022-10-11T00:29:44.681Z,11.43
2022-10-11T00:30:16.197Z,11.38
2022-10-11T00:30:47.752Z,11.38
2022-10-11T00:31:19.455Z,11.43
2022-10-11T00:31:51.052Z,11.23
2022-10-11T00:32:22.731Z,11.29
2022-10-11T00:32:54.288Z,11.30
2022-10-11T00:33:25.894Z,11.22
2022-10-11T00:33:57.511Z,11.15
2022-10-11T00:34:29.365Z,11.07
2022-10-11T00:35:04.826Z,11.12
2022-10-11T00:35:41.091Z,11.02
2022-10-11T00:36:17.237Z,11.16
2022-10-11T00:36:48.794Z,11.12
2022-10-11T00:37:20.669Z,11.11
2022-10-11T00:37:52.197Z,11.15
2022-10-11T00:38:23.716Z,11.12
2022-10-11T00:38:55.244Z,11.04
2022-10-11T00:39:26.997Z,11.05
2022-10-11T00:39:58.606Z,11.01
2022-10-11T00:40:30.125Z,11.00
2022-10-11T00:41:02.549Z,11.07
2022-10-11T00:41:34.236Z,11.09
2022-10-11T00:42:13.853Z,11.08
2022-10-11T00:42:46.448Z,11.08
2022-10-11T00:43:20.722Z,11.12
2022-10-11T00:44:21.378Z,10.91
2022-10-11T00:45:27.751Z,10.87
2022-10-11T00:46:07.573Z,10.97
2022-10-11T00:46:42.409Z,10.90
2022-10-11T00:47:24.781Z,10.92
2022-10-11T00:48:00.558Z,10.98
2022-10-11T00:48:32.072Z,10.94
2022-10-11T00:49:29.576Z,10.94
2022-10-11T00:50:01.693Z,10.84
2022-10-11T00:50:35.250Z,10.95
2022-10-11T00:51:29.481Z,10.92
2022-10-11T00:52:12.216Z,10.90
2022-10-11T00:52:50.070Z,10.91
2022-10-11T00:53:22.839Z,10.84
2022-10-11T00:53:54.754Z,10.81
2022-10-11T00:54:31.258Z,10.72
2022-10-11T00:55:12.059Z,10.74
2022-10-11T00:55:53.782Z,10.80
2022-10-11T00:56:29.380Z,10.80
2022-10-11T00:57:05.467Z,10.78
2022-10-11T00:57:41.399Z,10.72
2022-10-11T00:58:13.620Z,10.72
2022-10-11T00:58:45.211Z,10.71
2022-10-11T00:59:21.187Z,10.74
2022-10-11T00:59:54.974Z,10.78
2022-10-11T01:00:26.636Z,10.78
2022-10-11T01:00:58.474Z,10.75
2022-10-11T01:01:30.337Z,10.70
2022-10-11T01:02:02.520Z,10.75
2022-10-11T01:02:34.395Z,10.74
2022-10-11T01:03:06.155Z,10.74
2022-10-11T01:03:39.815Z,10.70
2022-10-11T01:04:11.422Z,10.75
2022-10-11T01:04:43.483Z,10.78
2022-10-11T01:05:29.242Z,10.70
2022-10-11T01:06:03.666Z,10.71
2022-10-11T01:06:35.942Z,10.70
2022-10-11T01:07:08.949Z,10.71
2022-10-11T01:07:41.613Z,10.63
2022-10-11T01:08:13.274Z,10.68
2022-10-11T01:08:44.888Z,10.60
2022-10-11T01:09:18.766Z,10.67
2022-10-11T01:09:50.282Z,10.67
2022-10-11T01:10:22.492Z,10.65
2022-10-11T01:10:54.506Z,10.61
2022-10-11T01:11:28.510Z,10.63
2022-10-11T01:12:03.463Z,10.61
2022-10-11T01:12:35.500Z,10.57
2022-10-11T01:13:44.673Z,10.51
2022-10-11T01:14:16.154Z,10.49
2022-10-11T01:14:59.560Z,10.56
2022-10-11T01:15:47.180Z,10.60
2022-10-11T01:16:34.102Z,10.54
2022-10-11T01:17:31.638Z,10.60
2022-10-11T01:18:24.830Z,10.57
2022-10-11T01:19:11.390Z,10.59
2022-10-11T01:20:10.585Z,10.63
2022-10-11T01:20:45.023Z,10.65
2022-10-11T01:21:59.640Z,10.64
2022-10-11T01:22:43.345Z,10.60
2022-10-11T01:24:08.196Z,10.57
2022-10-11T01:24:56.206Z,10.60
2022-10-11T01:25:37.036Z,10.56
2022-10-11T01:26:29.798Z,10.54
2022-10-11T01:27:27.604Z,10.56
2022-10-11T01:28:22.925Z,10.63
2022-10-11T01:29:03.366Z,10.63
2022-10-11T01:30:02.289Z,10.56
2022-10-11T01:30:36.335Z,10.60
2022-10-11T01:31:19.917Z,10.63
2022-10-11T01:32:01.646Z,10.61
2022-10-11T01:32:42.622Z,10.59
2022-10-11T01:33:35.178Z,10.54
2022-10-11T01:34:14.788Z,10.50
2022-10-11T01:35:05.675Z,10.46
2022-10-11T01:35:49.282Z,10.44
2022-10-11T01:36:56.170Z,10.33
2022-10-11T01:37:35.373Z,10.36
2022-10-11T01:38:21.353Z,10.36
2022-10-11T01:39:01.874Z,10.32
2022-10-11T01:39:38.787Z,10.32
2022-10-11T01:40:15.890Z,10.23
2022-10-11T01:40:52.942Z,10.28
2022-10-11T01:41:28.230Z,10.26
2022-10-11T01:42:04.116Z,10.26
2022-10-11T01:42:39.924Z,10.20
2022-10-11T01:43:13.101Z,10.17
2022-10-11T01:43:45.816Z,10.19
2022-10-11T01:44:17.730Z,10.14
2022-10-11T01:44:51.362Z,10.16
2022-10-11T01:45:24.130Z,10.22
2022-10-11T01:45:58.886Z,10.13
2022-10-11T01:46:31.579Z,10.09
2022-10-11T01:47:03.272Z,10.06
2022-10-11T01:47:34.971Z,10.08
2022-10-11T01:48:12.535Z,9.99
2022-10-11T01:48:51.903Z,9.93
2022-10-11T01:49:23.601Z,9.96
2022-10-11T01:49:58.137Z,9.89
2022-10-11T01:50:43.710Z,9.85
2022-10-11T01:51:15.810Z,9.88
2022-10-11T01:51:50.942Z,9.84
2022-10-11T01:52:23.044Z,9.77
2022-10-11T01:52:56.792Z,9.81
2022-10-11T01:53:44.077Z,9.88
2022-10-11T01:55:08.233Z,9.88
2022-10-11T01:56:22.571Z,9.85
2022-10-11T01:57:26.198Z,9.85
2022-10-11T01:58:12.446Z,9.85
2022-10-11T01:59:09.870Z,9.95
2022-10-11T02:00:10.111Z,9.99
2022-10-11T02:01:23.603Z,9.99
2022-10-11T02:02:21.479Z,9.93
2022-10-11T02:02:57.943Z,9.92
2022-10-11T02:03:50.816Z,9.95
2022-10-11T02:04:35.079Z,9.96
2022-10-11T02:05:11.960Z,9.91
2022-10-11T02:05:47.253Z,9.92
2022-10-11T02:06:34.338Z,9.93
2022-10-11T02:07:11.444Z,9.98
2022-10-11T02:07:45.882Z,9.95
2022-10-11T02:08:39.251Z,9.98
2022-10-11T02:09:47.275Z,10.03
2022-10-11T02:10:32.390Z,10.02
2022-10-11T02:11:09.408Z,10.08
2022-10-11T02:11:41.467Z,10.08
2022-10-11T02:12:20.737Z,10.02
2022-10-11T02:13:06.496Z,9.95
2022-10-11T02:14:00.954Z,9.81
2022-10-11T02:14:38.558Z,9.59
2022-10-11T02:15:13.467Z,9.75
2022-10-11T02:15:47.599Z,9.74
2022-10-11T02:16:23.746Z,9.78
2022-10-11T02:17:03.947Z,9.81
2022-10-11T02:17:42.074Z,9.82
2022-10-11T02:18:20.172Z,9.82
2022-10-11T02:18:55.085Z,9.81
2022-10-11T02:19:38.643Z,9.82
2022-10-11T02:20:18.462Z,9.79
2022-10-11T02:20:51.913Z,9.77
2022-10-11T02:21:24.716Z,9.77
2022-10-11T02:22:06.263Z,9.84
2022-10-11T02:22:40.592Z,9.82
2022-10-11T02:23:17.148Z,9.77
2022-10-11T02:23:53.622Z,9.79
2022-10-11T02:24:30.788Z,9.85
2022-10-11T02:25:07.060Z,9.88
2022-10-11T02:25:38.958Z,9.85
2022-10-11T02:26:12.036Z,9.86
2022-10-11T02:26:49.164Z,9.91
2022-10-11T02:27:25.664Z,9.91
2022-10-11T02:28:01.349Z,9.91
2022-10-11T02:28:36.771Z,9.91
2022-10-11T02:29:12.110Z,9.86
2022-10-11T02:29:46.479Z,9.79
2022-10-11T02:30:18.216Z,9.77
2022-10-11T02:30:51.901Z,9.70
2022-10-11T02:31:25.050Z,9.74
2022-10-11T02:31:58.540Z,9.59
2022-10-11T02:32:31.788Z,9.59
2022-10-11T02:33:07.678Z,9.62
2022-10-11T02:34:02.086Z,9.64
2022-10-11T02:34:45.997Z,9.51
2022-10-11T02:35:17.672Z,9.45
2022-10-11T02:35:54.557Z,9.47
2022-10-11T02:36:49.087Z,9.45
2022-10-11T02:37:51.549Z,9.47
2022-10-11T02:38:31.504Z,9.38
2022-10-11T02:39:10.315Z,9.45
2022-10-11T02:39:55.469Z,9.40
2022-10-11T02:40:34.497Z,9.44
2022-10-11T02:41:15.254Z,9.48
2022-10-11T02:41:47.373Z,9.48
2022-10-11T02:42:26.489Z,9.47
2022-10-11T02:43:03.585Z,9.51
2022-10-11T02:43:43.041Z,9.57
2022-10-11T02:44:24.006Z,9.57
2022-10-11T02:45:06.859Z,9.54
2022-10-11T02:45:43.298Z,9.64
2022-10-11T02:46:17.746Z,9.64
2022-10-11T02:46:50.334Z,9.64
2022-10-11T02:47:22.143Z,9.59
2022-10-11T02:47:54.063Z,9.64
2022-10-11T02:48:28.500Z,9.58
2022-10-11T02:49:01.030Z,9.58
2022-10-11T02:49:33.018Z,9.61
2022-10-11T02:50:05.136Z,9.64
2022-10-11T02:50:38.786Z,9.64
2022-10-11T02:51:14.376Z,9.68
2022-10-11T02:51:45.894Z,9.68
2022-10-11T02:52:17.434Z,9.67
2022-10-11T02:52:49.282Z,9.72
2022-10-11T02:53:21.213Z,9.71
2022-10-11T02:53:53.430Z,9.72
2022-10-11T02:54:26.486Z,9.77
2022-10-11T02:54:58.092Z,9.79
2022-10-11T02:55:29.599Z,9.81
2022-10-11T02:56:01.472Z,9.75
2022-10-11T02:56:33.132Z,9.71
2022-10-11T02:57:04.633Z,9.74
2022-10-11T02:57:36.164Z,9.75
2022-10-11T02:58:07.761Z,9.77
2022-10-11T02:58:39.333Z,9.74
2022-10-11T02:59:10.908Z,9.70
2022-10-11T02:59:42.450Z,9.64
2022-10-11T03:00:14.647Z,9.57
2022-10-11T03:00:46.274Z,9.55
2022-10-11T03:01:17.871Z,9.54
2022-10-11T03:01:49.591Z,9.52
2022-10-11T03:02:21.172Z,9.51
2022-10-11T03:02:52.938Z,9.47
2022-10-11T03:03:24.452Z,9.43
2022-10-11T03:03:56.042Z,9.22
2022-10-11T03:04:27.590Z,9.30
2022-10-11T03:04:59.090Z,9.35
2022-10-11T03:05:30.684Z,9.26
2022-10-11T03:06:04.285Z,9.33
2022-10-11T03:06:36.180Z,9.30
2022-10-11T03:07:07.696Z,9.26
2022-10-11T03:07:39.298Z,9.30
2022-10-11T03:08:13.323Z,9.30
2022-10-11T03:08:44.914Z,9.27
2022-10-11T03:09:16.447Z,9.23
2022-10-11T03:09:48.052Z,9.26
2022-10-11T03:10:19.638Z,9.30
2022-10-11T03:10:51.165Z,9.30
2022-10-11T03:11:22.674Z,9.31
2022-10-11T03:11:54.184Z,9.35
2022-10-11T03:12:25.776Z,9.28
2022-10-11T03:12:57.318Z,9.28
2022-10-11T03:13:28.832Z,9.27
2022-10-11T03:14:00.355Z,9.16
2022-10-11T03:14:31.950Z,9.16
2022-10-11T03:15:04.101Z,9.20
2022-10-11T03:15:35.663Z,9.26
2022-10-11T03:16:07.432Z,9.24
2022-10-11T03:16:39.091Z,9.26
2022-10-11T03:17:34.505Z,9.28
2022-10-11T03:18:02.264Z,9.33
2022-10-11T03:18:33.787Z,9.34
2022-10-11T03:19:05.462Z,9.40
2022-10-11T03:19:37.014Z,9.34
2022-10-11T03:20:09.006Z,9.31
2022-10-11T03:20:40.555Z,9.37
2022-10-11T03:21:12.144Z,9.37
2022-10-11T03:21:43.642Z,9.43
2022-10-11T03:22:15.365Z,9.40
2022-10-11T03:22:46.934Z,9.40
2022-10-11T03:23:18.463Z,9.45
2022-10-11T03:23:50.000Z,9.47
2022-10-11T03:24:21.590Z,9.45
2022-10-11T03:24:53.094Z,9.37
2022-10-11T03:25:24.782Z,9.47
2022-10-11T03:25:56.294Z,9.47
2022-10-11T03:26:27.872Z,9.54
2022-10-11T03:26:59.408Z,9.47
2022-10-11T03:27:31.404Z,9.50
2022-10-11T03:28:03.236Z,9.57
2022-10-11T03:28:34.811Z,9.57
2022-10-11T03:29:06.377Z,9.59
2022-10-11T03:29:37.914Z,9.59
2022-10-11T03:30:13.291Z,9.54
2022-10-11T03:30:50.653Z,9.50
2022-10-11T03:31:23.665Z,9.50
2022-10-11T03:31:55.295Z,9.52
2022-10-11T03:32:26.858Z,9.52
2022-10-11T03:32:58.360Z,9.54
2022-10-11T03:33:30.250Z,9.50
2022-10-11T03:34:01.880Z,9.54
2022-10-11T03:34:33.430Z,9.57
2022-10-11T03:35:05.478Z,9.51
2022-10-11T03:35:37.065Z,9.54
2022-10-11T03:36:09.141Z,9.52
2022-10-11T03:36:40.936Z,9.52
2022-10-11T03:37:12.457Z,9.50
2022-10-11T03:37:44.283Z,9.48
2022-10-11T03:38:19.238Z,9.51
2022-10-11T03:38:50.779Z,9.55
2022-10-11T03:39:22.424Z,9.61
2022-10-11T03:39:54.010Z,9.58
2022-10-11T03:40:25.560Z,9.52
2022-10-11T03:40:57.104Z,9.52
2022-10-11T03:41:29.266Z,9.50
2022-10-11T03:42:00.782Z,9.41
2022-10-11T03:42:32.339Z,9.38
2022-10-11T03:43:03.971Z,9.40
2022-10-11T03:43:35.750Z,9.44
2022-10-11T03:44:07.386Z,9.43
2022-10-11T03:44:38.895Z,9.35
2022-10-11T03:45:10.805Z,9.24
2022-10-11T03:45:42.446Z,9.10
2022-10-11T03:46:14.206Z,9.13
2022-10-11T03:46:45.746Z,9.17
2022-10-11T03:47:17.566Z,9.16
2022-10-11T03:47:49.470Z,9.13
2022-10-11T03:48:20.977Z,9.19
2022-10-11T03:48:52.472Z,9.16
2022-10-11T03:49:24.087Z,9.19
2022-10-11T03:49:55.595Z,9.19
2022-10-11T03:50:27.195Z,9.16
2022-10-11T03:50:58.734Z,9.13
2022-10-11T03:51:31.281Z,9.12
2022-10-11T03:52:02.824Z,9.13
2022-10-11T03:52:35.095Z,9.14
2022-10-11T03:53:07.493Z,9.12
2022-10-11T03:53:39.800Z,9.14
2022-10-11T03:54:11.342Z,9.14
2022-10-11T03:54:43.091Z,9.19
2022-10-11T03:55:14.612Z,9.24
2022-10-11T03:55:46.120Z,9.23
2022-10-11T03:56:17.654Z,9.23
2022-10-11T03:56:49.172Z,9.23
2022-10-11T03:57:20.724Z,9.19
2022-10-11T03:57:52.218Z,9.10
2022-10-11T03:58:24.474Z,9.16
2022-10-11T03:58:55.996Z,9.19
2022-10-11T03:59:27.516Z,9.19
2022-10-11T03:59:59.016Z,9.23
2022-10-11T04:00:30.796Z,9.24
2022-10-11T04:01:02.298Z,9.26
2022-10-11T04:01:37.953Z,9.20
2022-10-11T04:02:09.640Z,9.19
2022-10-11T04:02:41.223Z,9.23
2022-10-11T04:03:12.769Z,9.22
2022-10-11T04:03:44.290Z,9.22
2022-10-11T04:04:16.047Z,9.26
2022-10-11T04:04:47.654Z,9.28
2022-10-11T04:05:19.177Z,9.27
2022-10-11T04:05:50.780Z,9.27
2022-10-11T04:06:22.275Z,9.27
2022-10-11T04:06:53.778Z,9.27
2022-10-11T04:07:25.406Z,9.24
2022-10-11T04:07:56.940Z,9.23
2022-10-11T04:08:28.496Z,9.17
2022-10-11T04:09:00.107Z,9.17
2022-10-11T04:09:31.887Z,9.12
2022-10-11T04:10:03.610Z,9.16
2022-10-11T04:10:35.199Z,9.13
2022-10-11T04:11:06.920Z,9.12
2022-10-11T04:11:38.477Z,9.14
2022-10-11T04:12:10.122Z,9.13
2022-10-11T04:12:41.638Z,9.17
2022-10-11T04:13:13.224Z,9.22
2022-10-11T04:13:44.723Z,9.22
2022-10-11T04:14:17.157Z,9.24
2022-10-11T04:14:48.678Z,9.23
2022-10-11T04:15:20.353Z,9.26
2022-10-11T04:15:51.887Z,9.30
2022-10-11T04:16:23.384Z,9.30
2022-10-11T04:16:58.358Z,9.22
2022-10-11T04:17:32.007Z,9.26
2022-10-11T04:18:03.865Z,9.27
2022-10-11T04:18:35.369Z,9.30
2022-10-11T04:19:07.311Z,9.28
2022-10-11T04:19:38.840Z,9.31
2022-10-11T04:20:11.059Z,9.24
2022-10-11T04:20:42.807Z,9.23
2022-10-11T04:21:14.390Z,9.24
2022-10-11T04:21:45.900Z,9.19
2022-10-11T04:22:17.453Z,9.20
2022-10-11T04:22:49.211Z,9.12
2022-10-11T04:23:20.748Z,9.17
2022-10-11T04:23:52.260Z,9.07
2022-10-11T04:24:23.811Z,9.07
2022-10-11T04:24:55.422Z,9.07
2022-10-11T04:25:27.098Z,8.92
2022-10-11T04:25:58.615Z,8.99
2022-10-11T04:26:30.187Z,8.95
2022-10-11T04:27:01.711Z,9.00
2022-10-11T04:27:33.594Z,8.97
2022-10-11T04:28:05.258Z,8.96
2022-10-11T04:28:36.845Z,8.99
2022-10-11T04:29:08.379Z,8.99
2022-10-11T04:29:39.906Z,9.04
2022-10-11T04:30:12.096Z,9.00
2022-10-11T04:30:43.631Z,8.99
2022-10-11T04:31:15.222Z,9.06
2022-10-11T04:31:46.754Z,9.03
2022-10-11T04:32:18.285Z,9.06
2022-10-11T04:32:49.817Z,9.10
2022-10-11T04:33:21.396Z,8.99
2022-10-11T04:33:53.124Z,9.10
2022-10-11T04:34:24.750Z,9.12
2022-10-11T04:34:56.282Z,9.14
2022-10-11T04:35:27.830Z,9.20
2022-10-11T04:35:59.354Z,9.26
2022-10-11T04:36:33.007Z,9.24
2022-10-11T04:37:04.516Z,9.20
2022-10-11T04:37:36.093Z,9.26
2022-10-11T04:38:07.642Z,9.16
2022-10-11T04:38:39.211Z,9.13
2022-10-11T04:39:10.833Z,9.02
2022-10-11T04:39:42.328Z,9.10
2022-10-11T04:40:13.951Z,9.06
2022-10-11T04:40:45.484Z,9.03
2022-10-11T04:41:17.016Z,9.02
2022-10-11T04:41:48.636Z,9.10
2022-10-11T04:42:21.064Z,9.12
2022-10-11T04:42:53.729Z,9.13
2022-10-11T04:43:25.221Z,9.22
2022-10-11T04:43:56.939Z,9.24
2022-10-11T04:44:28.460Z,9.28
2022-10-11T04:45:00.034Z,9.28
2022-10-11T04:45:32.135Z,9.28
2022-10-11T04:46:05.250Z,9.37
2022-10-11T04:46:37.000Z,9.43
2022-10-11T04:47:08.717Z,9.43
2022-10-11T04:47:41.126Z,9.50
2022-10-11T04:48:13.957Z,9.48
2022-10-11T04:48:45.527Z,9.50
2022-10-11T04:49:17.077Z,9.47
2022-10-11T04:49:48.646Z,9.52
2022-10-11T04:50:20.160Z,9.54
2022-10-11T04:50:51.719Z,9.62
2022-10-11T04:51:23.396Z,9.67
2022-10-11T04:51:54.983Z,9.68
2022-10-11T04:52:26.524Z,9.74
2022-10-11T04:52:58.029Z,9.77
2022-10-11T04:53:29.964Z,9.72
2022-10-11T04:54:01.586Z,9.78
2022-10-11T04:54:33.073Z,9.82
2022-10-11T04:55:05.120Z,9.72
2022-10-11T04:55:36.689Z,9.78
2022-10-11T04:56:11.521Z,9.81
2022-10-11T04:56:43.333Z,9.77
2022-10-11T04:57:14.830Z,9.77
2022-10-11T04:57:46.353Z,9.81
2022-10-11T04:58:17.988Z,9.82
2022-10-11T04:58:51.906Z,9.86
2022-10-11T04:59:23.447Z,9.85
2022-10-11T04:59:54.983Z,9.84
2022-10-11T05:00:27.466Z,9.84
2022-10-11T05:00:59.032Z,9.82
2022-10-11T05:01:30.571Z,9.86
2022-10-11T05:02:02.172Z,9.88
2022-10-11T05:02:33.799Z,9.79
2022-10-11T05:03:05.362Z,9.81
2022-10-11T05:03:37.811Z,9.84
2022-10-11T05:04:09.364Z,9.78
2022-10-11T05:04:41.945Z,9.75
2022-10-11T05:05:17.411Z,9.75
2022-10-11T05:05:49.232Z,9.79
2022-10-11T05:06:20.754Z,9.71
2022-10-11T05:06:52.321Z,9.75
2022-10-11T05:07:23.833Z,9.75
2022-10-11T05:07:55.362Z,9.74
2022-10-11T05:08:26.967Z,9.68
2022-10-11T05:08:58.485Z,9.59
2022-10-11T05:09:30.043Z,9.64
2022-10-11T05:10:01.899Z,9.64
2022-10-11T05:10:33.407Z,9.70
2022-10-11T05:11:07.962Z,9.75
2022-10-11T05:11:39.473Z,9.78
2022-10-11T05:12:11.225Z,9.78
2022-10-11T05:12:42.788Z,9.75
2022-10-11T05:13:14.305Z,9.68
2022-10-11T05:13:46.315Z,9.72
2022-10-11T05:14:17.828Z,9.75
2022-10-11T05:14:49.388Z,9.74
2022-10-11T05:15:20.919Z,9.79
2022-10-11T05:15:52.877Z,9.77
2022-10-11T05:16:24.676Z,9.77
2022-10-11T05:16:56.240Z,9.78
2022-10-11T05:17:27.816Z,9.81
2022-10-11T05:17:59.474Z,9.77
2022-10-11T05:18:31.196Z,9.82
2022-10-11T05:19:02.790Z,9.81
2022-10-11T05:19:34.378Z,9.82
2022-10-11T05:20:06.831Z,9.85
2022-10-11T05:20:38.335Z,9.86
2022-10-11T05:21:22.039Z,9.92
2022-10-11T05:21:54.984Z,9.96
2022-10-11T05:22:26.553Z,10.01
2022-10-11T05:22:58.094Z,10.02
2022-10-11T05:23:31.286Z,10.03
2022-10-11T05:24:02.817Z,9.92
2022-10-11T05:24:34.491Z,9.89
2022-10-11T05:25:06.230Z,9.86
2022-10-11T05:25:37.937Z,9.95
2022-10-11T05:26:09.894Z,9.92
2022-10-11T05:26:41.484Z,9.99
2022-10-11T05:27:13.035Z,10.03
2022-10-11T05:27:44.575Z,10.08
2022-10-11T05:28:16.198Z,10.12
2022-10-11T05:28:48.140Z,10.14
2022-10-11T05:29:19.903Z,10.06
2022-10-11T05:29:51.436Z,10.03
2022-10-11T05:30:23.006Z,9.92
2022-10-11T05:30:54.883Z,9.84
2022-10-11T05:31:26.425Z,9.84
2022-10-11T05:31:57.934Z,9.82
2022-10-11T05:32:29.493Z,9.78
2022-10-11T05:33:01.053Z,9.82
2022-10-11T05:33:32.845Z,9.84
2022-10-11T05:34:04.665Z,9.84
2022-10-11T05:34:36.197Z,9.89
2022-10-11T05:35:08.223Z,9.93
2022-10-11T05:35:39.923Z,9.96
2022-10-11T05:36:11.974Z,9.99
2022-10-11T05:36:43.593Z,10.03
2022-10-11T05:37:15.104Z,10.06
2022-10-11T05:37:46.673Z,10.09
2022-10-11T05:38:18.378Z,10.13
2022-10-11T05:38:49.969Z,10.17
2022-10-11T05:39:21.489Z,10.19
2022-10-11T05:39:53.204Z,10.16
2022-10-11T05:40:24.747Z,10.19
2022-10-11T05:41:03.392Z,10.23
2022-10-11T05:41:34.937Z,10.29
2022-10-11T05:42:09.920Z,10.26
2022-10-11T05:42:41.670Z,10.32
2022-10-11T05:43:13.225Z,10.32
2022-10-11T05:43:45.830Z,10.32
2022-10-11T05:44:17.353Z,10.33
2022-10-11T05:44:48.845Z,10.39
2022-10-11T05:45:23.298Z,10.39
2022-10-11T05:45:54.955Z,10.40
2022-10-11T05:46:26.502Z,10.44
2022-10-11T05:46:58.056Z,10.43
2022-10-11T05:47:29.610Z,10.42
2022-10-11T05:48:01.126Z,10.34
2022-10-11T05:48:32.756Z,10.34
2022-10-11T05:49:04.301Z,10.32
2022-10-11T05:49:35.818Z,10.28
2022-10-11T05:50:07.539Z,10.24
2022-10-11T05:50:39.491Z,10.22
2022-10-11T05:51:11.962Z,10.28
2022-10-11T05:51:43.572Z,10.28
2022-10-11T05:52:19.798Z,10.28
2022-10-11T05:52:51.466Z,10.32
2022-10-11T05:53:22.987Z,10.33
2022-10-11T05:53:54.524Z,10.29
2022-10-11T05:54:29.688Z,10.39
2022-10-11T05:55:01.229Z,10.30
2022-10-11T05:55:40.718Z,10.28
2022-10-11T05:56:23.583Z,10.24
2022-10-11T05:56:55.103Z,10.34
2022-10-11T05:57:26.618Z,10.39
2022-10-11T05:57:58.133Z,10.43
2022-10-11T05:58:30.051Z,10.43
2022-10-11T05:59:02.667Z,10.50
2022-10-11T05:59:35.198Z,10.51
2022-10-11T06:00:07.336Z,10.46
2022-10-11T06:00:39.175Z,10.49
2022-10-11T06:01:40.315Z,10.49
2022-10-11T06:02:13.261Z,10.51
2022-10-11T06:02:44.777Z,10.56
2022-10-11T06:03:16.406Z,10.51
2022-10-11T06:03:48.066Z,10.56
2022-10-11T06:04:19.674Z,10.54
2022-10-11T06:04:51.362Z,10.56
2022-10-11T06:05:22.893Z,10.60
2022-10-11T06:05:57.031Z,10.60
2022-10-11T06:06:28.920Z,10.61
2022-10-11T06:07:00.435Z,10.61
2022-10-11T06:07:33.022Z,10.70
2022-10-11T06:08:06.678Z,10.68
2022-10-11T06:08:38.226Z,10.68
2022-10-11T06:09:09.773Z,10.68
2022-10-11T06:09:41.336Z,10.70
2022-10-11T06:10:12.967Z,10.70
2022-10-11T06:10:44.869Z,10.72
2022-10-11T06:11:21.911Z,10.61
2022-10-11T06:11:53.523Z,10.59
2022-10-11T06:12:25.122Z,10.49
2022-10-11T06:12:56.659Z,10.34
2022-10-11T06:13:28.161Z,10.47
2022-10-11T06:13:59.793Z,10.59
2022-10-11T06:14:31.603Z,10.61
2022-10-11T06:15:04.498Z,10.64
2022-10-11T06:15:38.717Z,10.68
2022-10-11T06:16:11.178Z,10.70
2022-10-11T06:16:42.683Z,10.68
2022-10-11T06:17:14.258Z,10.64
2022-10-11T06:17:47.078Z,10.68
2022-10-11T06:18:18.616Z,10.68
2022-10-11T06:18:56.904Z,10.64
2022-10-11T06:19:29.382Z,10.64
2022-10-11T06:20:00.879Z,10.67
2022-10-11T06:20:32.718Z,10.74
2022-10-11T06:21:04.561Z,10.72
2022-10-11T06:21:36.176Z,10.77
2022-10-11T06:22:11.475Z,10.80
2022-10-11T06:22:42.986Z,10.84
2022-10-11T06:23:14.486Z,10.88
2022-10-11T06:23:50.179Z,10.90
2022-10-11T06:24:21.787Z,10.84
2022-10-11T06:24:53.330Z,10.82
2022-10-11T06:25:24.847Z,10.78
2022-10-11T06:25:58.574Z,10.81
2022-10-11T06:26:30.609Z,10.87
2022-10-11T06:27:02.126Z,10.91
2022-10-11T06:27:33.646Z,10.87
2022-10-11T06:28:05.206Z,10.95
2022-10-11T06:28:37.169Z,11.02
2022-10-11T06:29:09.530Z,10.97
2022-10-11T06:29:42.142Z,11.04
2022-10-11T06:30:14.321Z,11.07
2022-10-11T06:30:45.848Z,11.04
2022-10-11T06:31:17.372Z,11.12
2022-10-11T06:31:49.206Z,11.19
2022-10-11T06:32:20.804Z,11.25
2022-10-11T06:32:52.316Z,11.26
2022-10-11T06:33:24.890Z,11.25
2022-10-11T06:33:56.398Z,11.29
2022-10-11T06:34:28.152Z,11.29
2022-10-11T06:34:59.812Z,11.30
2022-10-11T06:35:31.400Z,11.39
2022-10-11T06:36:07.661Z,11.43
2022-10-11T06:36:39.499Z,11.52
2022-10-11T06:37:11.015Z,11.55
2022-10-11T06:37:42.594Z,11.58
2022-10-11T06:38:14.186Z,11.59
2022-10-11T06:38:45.845Z,11.67
2022-10-11T06:39:17.398Z,11.70
2022-10-11T06:39:50.392Z,11.67
2022-10-11T06:40:22.883Z,11.73
2022-10-11T06:40:54.583Z,11.77
2022-10-11T06:41:28.465Z,11.76
2022-10-11T06:42:00.031Z,11.84
2022-10-11T06:42:31.558Z,11.94
2022-10-11T06:43:03.478Z,12.04
2022-10-11T06:43:34.980Z,12.10
2022-10-11T06:44:09.657Z,12.18
2022-10-11T06:44:43.486Z,12.20
2022-10-11T06:45:15.109Z,12.20
2022-10-11T06:45:48.482Z,12.24
2022-10-11T06:46:22.129Z,12.22
2022-10-11T06:46:53.680Z,12.32
2022-10-11T06:47:25.312Z,12.39
2022-10-11T06:47:56.848Z,12.45
2022-10-11T06:48:28.396Z,12.48
2022-10-11T06:48:59.960Z,12.50
2022-10-11T06:49:31.530Z,12.59
2022-10-11T06:50:03.213Z,12.70
2022-10-11T06:50:57.837Z,12.73
2022-10-11T06:51:27.217Z,12.76
2022-10-11T06:51:58.798Z,12.83
2022-10-11T06:52:30.315Z,12.80
2022-10-11T06:53:01.897Z,12.80
2022-10-11T06:53:33.487Z,12.80
2022-10-11T06:54:05.345Z,12.77
2022-10-11T06:54:39.157Z,12.79
2022-10-11T06:55:14.183Z,12.79
2022-10-11T06:55:45.704Z,12.82
2022-10-11T06:56:18.020Z,12.87
2022-10-11T06:56:49.599Z,12.99
2022-10-11T06:57:21.141Z,12.97
2022-10-11T06:57:53.171Z,13.14
2022-10-11T06:58:24.702Z,13.48
2022-10-11T06:58:57.751Z,13.87
2022-10-11T06:59:29.317Z,14.47
2022-10-11T07:00:00.865Z,14.96
2022-10-11T07:00:32.426Z,15.25
2022-10-11T07:01:09.913Z,15.53
2022-10-11T07:01:42.582Z,15.84
2022-10-11T07:02:14.144Z,15.94
2022-10-11T07:02:45.674Z,16.11
2022-10-11T07:03:17.183Z,15.98
2022-10-11T07:03:49.075Z,16.05
2022-10-11T07:04:20.577Z,15.91
2022-10-11T07:04:52.128Z,16.10
2022-10-11T07:05:23.690Z,15.96
2022-10-11T07:06:10.822Z,15.83
2022-10-11T07:06:42.622Z,16.05
2022-10-11T07:07:14.404Z,16.33
2022-10-11T07:07:45.945Z,16.51
2022-10-11T07:08:17.674Z,16.38
2022-10-11T07:08:49.630Z,16.79
2022-10-11T07:09:21.147Z,17.20
2022-10-11T07:09:52.682Z,17.31
2022-10-11T07:10:24.199Z,17.49
2022-10-11T07:11:11.128Z,17.08
2022-10-11T07:11:42.630Z,16.84
2022-10-11T07:12:14.170Z,16.38
2022-10-11T07:12:46.054Z,16.18
2022-10-11T07:13:17.595Z,16.10
2022-10-11T07:13:56.330Z,15.89
2022-10-11T07:14:27.918Z,16.18
2022-10-11T07:14:59.426Z,16.38
2022-10-11T07:15:31.318Z,16.31
2022-10-11T07:16:11.196Z,16.83
2022-10-11T07:16:42.732Z,16.90
2022-10-11T07:17:14.241Z,17.03
2022-10-11T07:17:45.926Z,17.58
2022-10-11T07:18:17.436Z,17.85
2022-10-11T07:18:58.729Z,18.09
2022-10-11T07:19:31.603Z,18.17
2022-10-11T07:20:03.442Z,18.00
2022-10-11T07:20:36.062Z,17.89
2022-10-11T07:21:11.138Z,17.66
2022-10-11T07:21:42.769Z,17.66
2022-10-11T07:22:14.280Z,17.35
2022-10-11T07:22:45.830Z,17.21
2022-10-11T07:23:17.542Z,17.23
2022-10-11T07:23:49.130Z,17.42
2022-10-11T07:24:20.694Z,17.32
2022-10-11T07:24:52.278Z,17.51
2022-10-11T07:25:23.830Z,17.54
2022-10-11T07:25:55.438Z,17.39
2022-10-11T07:26:28.024Z,17.26
2022-10-11T07:26:59.578Z,17.18
2022-10-11T07:27:31.074Z,17.14
2022-10-11T07:28:03.580Z,17.20
2022-10-11T07:28:38.054Z,17.26